Terminal Aerodrome Forecast
Issued by NWS

Current Version | Previous Version | Text Only | Print | Product List | Glossary Off
Versions: 1 2 3 4 5 6 7 8 9 10 11 12 13 14 15 16 17

000
FTUS41 KILN 240520
TAFLUK
TAF
KLUK 240520Z 2406/2506 04005KT P6SM FEW050 SCT200
     FM241500 06009KT P6SM SCT050 BKN200
     FM250400 10007KT P6SM OVC040=

USA.gov is the U.S. government's official web portal to all federal, state and local government web resources and services.